Time;durP1;ratioP1;P1;durP2;ratioP2;P2;SDS_P1;SDS_P2;PMS_P1;PMS_P2;Temp;Humidity;BMP_temperature;BMP_pressure;BME280_temperature;BME280_humidity;BME280_pressure;Samples;Min_cycle;Max_cycle;Signal;HPM_P1;HPM_P2
2021/11/11 00:01:56;;;;;;;182.40;32.88;;;5.90;99.90;;;;;;4971455;28;20041;-53
2021/11/11 00:04:22;;;;;;;279.33;39.88;;;5.90;99.90;;;;;;4972341;28;20039;-58
2021/11/11 00:06:48;;;;;;;325.48;41.67;;;6.10;99.90;;;;;;4972568;28;20081;-57
2021/11/11 00:09:14;;;;;;;185.32;34.08;;;6.10;99.90;;;;;;4972605;28;20034;-58
2021/11/11 00:11:42;;;;;;;162.00;30.88;;;6.00;99.90;;;;;;5004659;28;20041;-56
2021/11/11 00:14:09;;;;;;;272.73;36.40;;;5.90;99.90;;;;;;5013517;28;20065;-57
2021/11/11 00:16:35;;;;;;;237.93;32.38;;;5.90;99.90;;;;;;5013765;28;20034;-53
2021/11/11 00:19:01;;;;;;;313.63;41.67;;;5.80;99.90;;;;;;5013242;28;20030;-55
2021/11/11 00:21:27;;;;;;;142.02;31.38;;;5.90;99.90;;;;;;4963444;28;20520;-52
2021/11/11 00:23:53;;;;;;;235.68;35.75;;;6.00;99.90;;;;;;5013503;28;20029;-57
2021/11/11 00:26:19;;;;;;;167.23;29.48;;;6.00;99.90;;;;;;4946881;28;20508;-54
2021/11/11 00:28:44;;;;;;;194.63;31.55;;;5.80;99.90;;;;;;5013157;28;20044;-57
2021/11/11 00:31:11;;;;;;;286.67;36.00;;;5.80;99.90;;;;;;5013662;28;20045;-58
2021/11/11 00:33:37;;;;;;;181.45;32.55;;;6.00;99.90;;;;;;4995120;28;20038;-53
2021/11/11 00:36:04;;;;;;;330.30;40.47;;;6.20;99.90;;;;;;4963070;28;20057;-55
2021/11/11 00:38:30;;;;;;;192.52;34.75;;;6.10;99.90;;;;;;4963064;28;20113;-57
2021/11/11 00:40:56;;;;;;;376.50;40.92;;;6.30;99.90;;;;;;5013878;28;20557;-56
2021/11/11 00:43:21;;;;;;;374.02;45.17;;;6.30;99.90;;;;;;4962916;28;20068;-53
2021/11/11 00:45:47;;;;;;;318.48;40.70;;;6.40;99.90;;;;;;5013176;28;20040;-58
2021/11/11 00:48:13;;;;;;;191.95;37.50;;;6.50;99.90;;;;;;5013596;28;20026;-55
2021/11/11 00:50:40;;;;;;;316.27;43.63;;;6.50;99.90;;;;;;5013129;28;20049;-55
2021/11/11 00:53:07;;;;;;;270.90;41.08;;;6.50;99.90;;;;;;5013205;28;20116;-53
2021/11/11 00:55:34;;;;;;;189.93;37.08;;;6.60;99.90;;;;;;5013121;28;20046;-57
2021/11/11 00:58:01;;;;;;;245.65;38.60;;;6.60;99.90;;;;;;5013250;28;20071;-59
2021/11/11 01:00:27;;;;;;;324.02;42.20;;;6.60;99.90;;;;;;5012616;28;20041;-56
2021/11/11 01:02:55;;;;;;;262.17;37.92;;;6.80;99.90;;;;;;4995018;28;20049;-56
2021/11/11 01:05:21;;;;;;;161.30;33.42;;;6.70;99.90;;;;;;5012983;28;20113;-55
2021/11/11 01:07:49;;;;;;;106.47;31.90;;;6.70;99.90;;;;;;4962717;28;20438;-56
2021/11/11 01:10:17;;;;;;;173.98;31.65;;;6.80;99.90;;;;;;5015829;28;20038;-60
2021/11/11 01:12:44;;;;;;;140.70;28.25;;;6.70;99.90;;;;;;4966411;28;20042;-58
2021/11/11 01:15:13;;;;;;;129.45;32.25;;;6.60;99.90;;;;;;5016795;28;20414;-55
2021/11/11 01:17:39;;;;;;;248.32;36.53;;;6.80;99.90;;;;;;5016670;28;20026;-58
2021/11/11 01:20:08;;;;;;;250.90;35.47;;;6.70;99.90;;;;;;5016464;28;20057;-54
2021/11/11 01:22:35;;;;;;;162.18;31.52;;;6.70;99.90;;;;;;5016663;28;20440;-55
2021/11/11 01:25:02;;;;;;;234.82;33.15;;;6.90;99.90;;;;;;5016480;28;20112;-55
2021/11/11 01:27:28;;;;;;;90.22;28.50;;;6.70;99.90;;;;;;5016553;28;20026;-57
2021/11/11 01:29:54;;;;;;;213.80;35.67;;;6.50;99.90;;;;;;5016862;28;20032;-55
2021/11/11 01:32:19;;;;;;;163.07;29.60;;;6.60;99.90;;;;;;5016420;28;20049;-56
2021/11/11 01:34:45;;;;;;;183.80;33.30;;;6.70;99.90;;;;;;4965528;28;20041;-57
2021/11/11 01:37:11;;;;;;;172.80;33.92;;;6.70;99.90;;;;;;5016555;28;20022;-55
2021/11/11 01:39:37;;;;;;;205.13;32.80;;;6.70;99.90;;;;;;5016674;28;20334;-60
2021/11/11 01:42:03;;;;;;;161.07;32.58;;;6.90;99.90;;;;;;4949232;28;20044;-55
2021/11/11 01:44:29;;;;;;;147.13;31.92;;;7.00;99.90;;;;;;4966196;28;20116;-54
2021/11/11 01:46:55;;;;;;;95.30;29.25;;;7.10;99.90;;;;;;4965803;28;20577;-55
2021/11/11 01:49:21;;;;;;;96.15;31.48;;;7.20;99.90;;;;;;5016212;28;20030;-54
2021/11/11 01:51:47;;;;;;;152.48;32.42;;;7.20;99.90;;;;;;5020016;28;20491;-56
2021/11/11 01:54:18;;;;;;;191.23;34.15;;;7.20;99.90;;;;;;5036201;28;20952;-56
2021/11/11 01:56:44;;;;;;;84.43;26.80;;;7.20;99.90;;;;;;5000916;28;20092;-54
2021/11/11 01:59:11;;;;;;;168.52;34.95;;;7.10;99.90;;;;;;5035782;28;20068;-54
2021/11/11 02:01:37;;;;;;;80.72;28.92;;;7.20;99.90;;;;;;5000349;28;20423;-58
2021/11/11 02:04:04;;;;;;;93.57;29.58;;;7.20;99.90;;;;;;5035607;28;20022;-59
2021/11/11 02:06:30;;;;;;;84.70;31.85;;;7.10;99.90;;;;;;5035609;28;20032;-58
2021/11/11 02:08:57;;;;;;;97.93;32.90;;;7.30;99.90;;;;;;5035877;28;20025;-53
2021/11/11 02:11:23;;;;;;;96.50;31.35;;;7.20;99.90;;;;;;5035487;28;20037;-58
2021/11/11 02:13:50;;;;;;;197.40;34.80;;;7.30;99.90;;;;;;4984575;28;20033;-58
2021/11/11 02:16:16;;;;;;;116.35;32.08;;;7.50;99.90;;;;;;5035495;28;20453;-58
2021/11/11 02:18:42;;;;;;;136.30;32.55;;;7.50;99.90;;;;;;5035698;28;20061;-57
2021/11/11 02:21:08;;;;;;;96.60;31.95;;;7.40;99.90;;;;;;5034406;28;20056;-54
2021/11/11 02:23:34;;;;;;;133.60;33.50;;;7.50;99.90;;;;;;5000719;28;20041;-56
2021/11/11 02:26:00;;;;;;;144.60;33.78;;;7.60;99.90;;;;;;5035180;28;20025;-53
2021/11/11 02:28:26;;;;;;;104.25;30.90;;;7.70;99.90;;;;;;5016863;28;20040;-57
2021/11/11 02:30:54;;;;;;;95.32;31.02;;;7.60;99.90;;;;;;5034981;28;20037;-59
2021/11/11 02:33:25;;;;;;;124.80;34.05;;;7.40;99.90;;;;;;5035033;28;20021;-57
2021/11/11 02:35:52;;;;;;;110.22;33.58;;;7.40;99.90;;;;;;5034929;28;20440;-55
2021/11/11 02:38:19;;;;;;;119.28;32.40;;;7.40;99.90;;;;;;5034843;28;20025;-59
2021/11/11 02:40:45;;;;;;;95.40;31.65;;;7.40;99.90;;;;;;5034964;28;20041;-56
2021/11/11 02:43:13;;;;;;;66.75;30.90;;;7.60;99.90;;;;;;5034887;28;20021;-57
2021/11/11 02:45:43;;;;;;;125.47;34.42;;;7.70;99.90;;;;;;5034806;28;20018;-55
2021/11/11 02:48:13;;;;;;;102.05;32.67;;;7.90;99.90;;;;;;5034723;28;20393;-58
2021/11/11 02:50:40;;;;;;;88.88;33.60;;;8.10;99.90;;;;;;5000021;28;20398;-55
2021/11/11 02:53:08;;;;;;;72.43;30.83;;;8.10;99.90;;;;;;5000004;28;20033;-55
2021/11/11 02:55:34;;;;;;;108.72;31.13;;;8.20;99.90;;;;;;5035172;28;20427;-53
2021/11/11 02:58:01;;;;;;;77.43;31.63;;;8.20;99.90;;;;;;5034556;28;20538;-53
2021/11/11 03:00:43;;;;;;;134.48;31.85;;;8.00;99.90;;;;;;5034101;28;20049;-55
2021/11/11 03:03:09;;;;;;;76.70;31.23;;;7.90;99.90;;;;;;5034638;28;20033;-58
2021/11/11 03:05:35;;;;;;;129.52;32.08;;;7.90;99.90;;;;;;5034394;28;20033;-57
2021/11/11 03:08:01;;;;;;;80.07;30.98;;;8.10;99.90;;;;;;5034395;28;20079;-55
2021/11/11 03:10:28;;;;;;;86.38;34.38;;;8.10;99.90;;;;;;4999350;28;20120;-55
2021/11/11 03:12:56;;;;;;;88.30;34.42;;;8.10;99.90;;;;;;4992839;28;20053;-55
2021/11/11 03:15:24;;;;;;;84.25;32.55;;;8.10;99.90;;;;;;4992934;28;20037;-56
2021/11/11 03:17:50;;;;;;;78.47;33.03;;;8.20;99.90;;;;;;4992639;28;20082;-58
2021/11/11 03:20:17;;;;;;;106.38;34.53;;;8.30;99.90;;;;;;4992506;28;20097;-53
2021/11/11 03:22:44;;;;;;;77.47;31.23;;;8.30;99.90;;;;;;4993018;28;20078;-56
2021/11/11 03:25:12;;;;;;;148.38;35.88;;;8.20;99.90;;;;;;4976454;28;20041;-52
2021/11/11 03:27:39;;;;;;;110.20;31.50;;;8.40;99.90;;;;;;4992593;28;20039;-54
2021/11/11 03:30:10;;;;;;;97.82;30.75;;;8.50;99.90;;;;;;4992453;28;20529;-54
2021/11/11 03:32:36;;;;;;;87.78;31.25;;;8.60;99.90;;;;;;4973850;28;20042;-52
2021/11/11 03:35:03;;;;;;;73.88;30.58;;;8.60;99.90;;;;;;4992399;28;20038;-52
2021/11/11 03:37:30;;;;;;;71.75;30.85;;;8.60;99.90;;;;;;4976291;28;20045;-51
2021/11/11 03:39:56;;;;;;;66.20;32.15;;;8.50;99.90;;;;;;4992357;28;20061;-54
2021/11/11 03:42:22;;;;;;;125.57;35.05;;;8.40;99.90;;;;;;4992003;28;20490;-55
2021/11/11 03:44:48;;;;;;;94.65;33.38;;;8.50;99.90;;;;;;5028771;28;20037;-54
2021/11/11 03:47:14;;;;;;;80.57;29.67;;;8.60;99.90;;;;;;4999062;28;20084;-55
2021/11/11 03:49:40;;;;;;;93.20;30.85;;;8.70;99.90;;;;;;5015298;28;20413;-54
2021/11/11 03:52:08;;;;;;;64.43;29.40;;;8.60;99.90;;;;;;5033467;28;20041;-52
2021/11/11 03:54:34;;;;;;;108.30;34.30;;;8.60;99.90;;;;;;5033994;28;20036;-56
2021/11/11 03:57:00;;;;;;;102.50;31.00;;;8.70;99.90;;;;;;5033856;28;20351;-57
2021/11/11 03:59:27;;;;;;;80.93;31.02;;;8.70;99.90;;;;;;5033407;28;20147;-56
2021/11/11 04:01:55;;;;;;;84.95;30.40;;;8.80;99.90;;;;;;5033301;28;20026;-55
2021/11/11 04:04:21;;;;;;;110.15;32.45;;;8.80;99.90;;;;;;5033447;28;20040;-56
2021/11/11 04:06:48;;;;;;;70.43;30.58;;;8.80;99.90;;;;;;5033255;28;20037;-52
2021/11/11 04:09:14;;;;;;;133.35;35.65;;;8.90;99.90;;;;;;5033531;28;20030;-54
2021/11/11 04:11:40;;;;;;;140.85;32.53;;;8.80;99.90;;;;;;5033163;28;20034;-53
2021/11/11 04:14:07;;;;;;;112.10;30.48;;;8.90;99.90;;;;;;4982466;28;20061;-53
2021/11/11 04:16:34;;;;;;;96.78;31.23;;;8.90;99.90;;;;;;5033288;28;20024;-53
2021/11/11 04:19:01;;;;;;;96.10;29.52;;;8.90;99.90;;;;;;5033238;28;20036;-51
2021/11/11 04:21:27;;;;;;;97.32;28.80;;;8.90;99.90;;;;;;4982578;28;20540;-54
2021/11/11 04:23:53;;;;;;;84.00;27.65;;;8.90;99.90;;;;;;5033371;28;20432;-56
2021/11/11 04:26:26;;;;;;;72.90;28.45;;;8.90;99.90;;;;;;5033151;28;20045;-55
2021/11/11 04:31:27;;;;;;;122.00;30.73;;;8.90;99.90;;;;;;5033142;28;20045;-54
2021/11/11 04:33:58;;;;;;;67.20;28.17;;;8.90;99.90;;;;;;5033091;28;20645;-57
2021/11/11 04:42:33;;;;;;;64.07;26.42;;;9.00;99.90;;;;;;4991669;28;20043;-52
2021/11/11 05:03:35;;;;;;;63.47;28.40;;;8.90;99.90;;;;;;4937486;29;20046;-56
2021/11/11 05:06:01;;;;;;;95.53;42.55;;;9.00;99.90;;;;;;4937168;29;20043;-54
2021/11/11 05:08:28;;;;;;;79.43;33.47;;;8.80;99.90;;;;;;4925954;29;20429;-56
2021/11/11 05:10:55;;;;;;;102.93;39.08;;;8.70;99.90;;;;;;4917876;29;20040;-56
2021/11/11 05:13:21;;;;;;;75.43;29.60;;;8.70;99.90;;;;;;4918277;29;20044;-52
2021/11/11 05:15:47;;;;;;;67.07;32.65;;;8.80;99.90;;;;;;4918095;29;20140;-57
2021/11/11 05:18:13;;;;;;;65.95;28.88;;;8.80;99.90;;;;;;4920368;29;20389;-54
2021/11/11 05:20:39;;;;;;;75.00;27.65;;;8.80;99.90;;;;;;4951512;29;20078;-57
2021/11/11 05:23:05;;;;;;;73.60;28.48;;;8.80;99.90;;;;;;4956206;29;20035;-58
2021/11/11 05:25:31;;;;;;;76.82;27.90;;;8.90;99.90;;;;;;4956004;29;20122;-56
2021/11/11 05:27:58;;;;;;;77.13;28.60;;;9.00;99.90;;;;;;4956049;29;20032;-54
2021/11/11 05:30:24;;;;;;;87.20;28.60;;;9.10;99.90;;;;;;4955959;29;20042;-53
2021/11/11 05:32:50;;;;;;;69.80;27.90;;;9.10;99.90;;;;;;4997589;28;20100;-58
2021/11/11 05:35:16;;;;;;;74.78;30.10;;;9.20;99.90;;;;;;5016498;28;20026;-53
2021/11/11 05:37:43;;;;;;;66.35;28.75;;;9.20;99.90;;;;;;5034888;28;20040;-58
2021/11/11 05:40:12;;;;;;;111.30;28.98;;;9.10;99.90;;;;;;4974894;28;20154;-58
2021/11/11 05:42:38;;;;;;;72.95;29.05;;;9.20;99.90;;;;;;4943503;28;20038;-53
2021/11/11 05:45:05;;;;;;;93.70;29.40;;;9.20;99.90;;;;;;4975029;28;20053;-55
2021/11/11 05:47:31;;;;;;;95.57;29.05;;;9.20;99.90;;;;;;4975612;28;20090;-53
2021/11/11 05:49:57;;;;;;;112.50;28.63;;;9.20;99.90;;;;;;4975078;28;20043;-58
2021/11/11 05:52:23;;;;;;;101.55;27.90;;;9.10;99.90;;;;;;4942696;28;20075;-56
2021/11/11 05:54:49;;;;;;;78.35;28.30;;;9.20;99.90;;;;;;4974129;28;20051;-56
2021/11/11 05:57:15;;;;;;;69.00;28.10;;;9.30;99.90;;;;;;4973902;28;20038;-56
2021/11/11 05:59:41;;;;;;;66.03;26.42;;;9.30;99.90;;;;;;4941299;28;20134;-57
2021/11/11 06:02:07;;;;;;;81.88;31.33;;;9.20;99.90;;;;;;4973403;28;20037;-56
2021/11/11 06:04:33;;;;;;;81.35;29.35;;;9.20;99.90;;;;;;4941128;28;20042;-56
2021/11/11 06:06:59;;;;;;;68.22;27.60;;;9.20;99.90;;;;;;4973344;28;20039;-55
2021/11/11 06:09:25;;;;;;;85.47;28.45;;;9.10;99.90;;;;;;4973514;28;20030;-58
2021/11/11 06:11:51;;;;;;;70.78;28.13;;;9.00;99.90;;;;;;5022524;28;20091;-53
2021/11/11 06:14:16;;;;;;;75.90;27.63;;;9.00;99.90;;;;;;5034378;28;20025;-53
2021/11/11 06:16:42;;;;;;;70.93;28.70;;;9.00;99.90;;;;;;5034384;28;20026;-56
2021/11/11 06:19:09;;;;;;;68.47;26.15;;;9.00;99.90;;;;;;5034103;28;20052;-56
2021/11/11 06:21:37;;;;;;;76.28;30.02;;;9.00;99.90;;;;;;5034386;28;20400;-55
2021/11/11 06:24:04;;;;;;;78.88;29.77;;;9.10;99.90;;;;;;5015515;28;20037;-58
2021/11/11 06:26:29;;;;;;;65.82;27.48;;;9.10;99.90;;;;;;5034212;28;20029;-53
2021/11/11 06:28:55;;;;;;;69.95;26.98;;;9.10;99.90;;;;;;5034228;28;20025;-59
2021/11/11 06:31:21;;;;;;;58.28;27.60;;;9.10;99.90;;;;;;5034075;28;20489;-56
2021/11/11 06:33:47;;;;;;;68.10;26.80;;;9.20;99.90;;;;;;5022954;28;20026;-55
2021/11/11 06:36:13;;;;;;;68.72;24.35;;;9.30;99.90;;;;;;5023254;28;20643;-54
2021/11/11 06:38:40;;;;;;;63.67;26.65;;;9.40;99.90;;;;;;5023849;28;20036;-55
2021/11/11 06:41:06;;;;;;;58.10;24.38;;;9.50;99.90;;;;;;4989610;28;20042;-57
2021/11/11 06:43:32;;;;;;;56.28;24.77;;;9.60;99.90;;;;;;5002496;28;20031;-53
2021/11/11 06:45:59;;;;;;;52.30;25.25;;;9.60;99.90;;;;;;4968993;28;20058;-56
2021/11/11 06:48:25;;;;;;;53.42;25.02;;;9.60;99.90;;;;;;4963774;28;20126;-56
2021/11/11 06:50:51;;;;;;;72.35;28.08;;;9.60;99.90;;;;;;4963380;28;20051;-56
2021/11/11 06:53:18;;;;;;;65.07;28.27;;;9.70;99.90;;;;;;4922885;29;20509;-56
2021/11/11 06:55:46;;;;;;;65.65;29.50;;;9.60;99.90;;;;;;4933010;29;20055;-56
2021/11/11 06:58:19;;;;;;;63.15;27.77;;;9.80;99.90;;;;;;4930632;29;20157;-52
2021/11/11 07:00:45;;;;;;;65.75;26.98;;;9.80;99.90;;;;;;4926214;29;20048;-53
2021/11/11 07:03:11;;;;;;;62.78;29.25;;;9.80;99.90;;;;;;4924038;29;20142;-56
2021/11/11 07:05:38;;;;;;;68.53;29.52;;;9.90;99.90;;;;;;4914999;29;20142;-53
2021/11/11 07:08:08;;;;;;;67.15;27.33;;;9.70;99.90;;;;;;4915096;29;20598;-57
2021/11/11 07:10:35;;;;;;;61.50;26.95;;;9.60;99.90;;;;;;4914822;29;20511;-64
2021/11/11 07:13:01;;;;;;;63.10;29.30;;;9.50;99.90;;;;;;4931637;29;20039;-67
2021/11/11 07:15:27;;;;;;;62.65;31.02;;;9.50;99.90;;;;;;4933761;29;20132;-67
2021/11/11 07:17:53;;;;;;;99.05;55.60;;;9.60;99.90;;;;;;4933786;29;20047;-64
2021/11/11 07:20:18;;;;;;;50.90;24.30;;;9.50;99.90;;;;;;4956783;28;20051;-64
2021/11/11 07:22:45;;;;;;;44.17;23.98;;;9.70;99.90;;;;;;4931753;28;20088;-64
2021/11/11 07:25:12;;;;;;;36.40;20.92;;;9.30;99.90;;;;;;5030319;28;20041;-66
2021/11/11 07:27:38;;;;;;;30.92;17.67;;;9.10;99.90;;;;;;5032959;28;20034;-61
2021/11/11 07:30:10;;;;;;;33.92;18.83;;;8.90;99.90;;;;;;5026255;28;20029;-63
2021/11/11 07:32:37;;;;;;;46.15;22.92;;;8.90;99.90;;;;;;4991578;28;20065;-61
2021/11/11 07:35:03;;;;;;;50.70;27.35;;;8.90;99.90;;;;;;5024525;28;20022;-62
2021/11/11 07:37:29;;;;;;;43.13;23.05;;;8.90;99.90;;;;;;5020823;28;20040;-61
2021/11/11 07:39:56;;;;;;;40.20;21.90;;;9.10;99.90;;;;;;5022030;28;20018;-61
2021/11/11 07:42:22;;;;;;;44.78;23.08;;;9.00;99.90;;;;;;4986460;28;20033;-59
2021/11/11 07:44:48;;;;;;;38.47;21.42;;;8.70;99.90;;;;;;4985044;28;20408;-61
2021/11/11 07:47:26;;;;;;;44.80;22.88;;;8.80;99.90;;;;;;5032997;28;20053;-64
2021/11/11 07:49:51;;;;;;;45.15;24.00;;;8.80;99.90;;;;;;5023244;28;20033;-58
2021/11/11 07:52:17;;;;;;;44.03;22.65;;;9.00;99.90;;;;;;5020552;28;20037;-59
2021/11/11 07:54:43;;;;;;;49.05;23.92;;;8.80;99.90;;;;;;4996055;28;20080;-58
2021/11/11 07:57:10;;;;;;;44.25;23.48;;;9.00;99.90;;;;;;5030267;28;20135;-59
2021/11/11 07:59:39;;;;;;;48.80;23.02;;;9.30;99.90;;;;;;5008709;28;20092;-57
2021/11/11 08:02:06;;;;;;;43.05;23.02;;;9.40;99.90;;;;;;4996072;28;20048;-58
2021/11/11 08:04:32;;;;;;;43.55;23.20;;;9.40;99.90;;;;;;5023020;28;20029;-57
2021/11/11 08:06:58;;;;;;;46.15;23.85;;;9.40;99.90;;;;;;5027103;28;20033;-58
2021/11/11 08:09:24;;;;;;;42.22;22.60;;;9.40;99.90;;;;;;5032401;28;20089;-58
2021/11/11 08:11:50;;;;;;;52.83;25.73;;;9.20;99.90;;;;;;4993862;28;20136;-56
2021/11/11 08:14:16;;;;;;;51.20;24.77;;;9.30;99.90;;;;;;4981793;28;20036;-59
2021/11/11 08:16:42;;;;;;;53.25;26.50;;;9.50;99.90;;;;;;5022472;28;20112;-56
2021/11/11 08:19:09;;;;;;;59.50;27.10;;;8.80;99.90;;;;;;5030086;28;20132;-60
2021/11/11 08:21:35;;;;;;;52.08;26.17;;;8.60;99.90;;;;;;4999460;28;20034;-56
2021/11/11 08:24:01;;;;;;;57.33;26.02;;;8.50;99.90;;;;;;4998558;28;20421;-58
2021/11/11 08:26:27;;;;;;;53.83;26.92;;;8.40;99.90;;;;;;4974320;28;20061;-58
2021/11/11 08:28:53;;;;;;;91.63;53.53;;;8.70;99.90;;;;;;4996650;28;20453;-57
2021/11/11 08:31:19;;;;;;;53.92;29.92;;;8.90;99.90;;;;;;4995825;28;20122;-59
2021/11/11 08:33:44;;;;;;;55.13;29.42;;;9.10;99.90;;;;;;4996058;28;20050;-57
2021/11/11 08:36:10;;;;;;;59.05;30.08;;;9.30;99.90;;;;;;4987385;28;20038;-60
2021/11/11 08:38:36;;;;;;;46.30;26.77;;;9.50;99.90;;;;;;4982201;28;20129;-55
2021/11/11 08:41:02;;;;;;;58.92;29.63;;;9.50;99.90;;;;;;5009659;28;20464;-55
2021/11/11 08:43:28;;;;;;;44.97;22.58;;;9.10;99.90;;;;;;5006200;28;20061;-56
2021/11/11 08:45:54;;;;;;;44.47;24.58;;;8.30;99.90;;;;;;5009919;28;20491;-56
2021/11/11 08:48:20;;;;;;;55.13;27.90;;;7.90;99.90;;;;;;5010155;28;20034;-56
2021/11/11 08:50:46;;;;;;;48.88;26.50;;;8.40;99.90;;;;;;5009163;28;20038;-56
2021/11/11 08:53:13;;;;;;;53.78;28.25;;;8.50;99.90;;;;;;5001211;28;20050;-57
2021/11/11 08:55:40;;;;;;;48.83;26.50;;;8.90;99.90;;;;;;5002447;28;20554;-58
2021/11/11 08:58:08;;;;;;;39.85;21.35;;;9.10;99.90;;;;;;5004349;28;20041;-56
2021/11/11 09:00:39;;;;;;;44.58;23.75;;;9.00;99.90;;;;;;5014761;28;20385;-56
2021/11/11 09:03:06;;;;;;;47.70;27.58;;;8.60;99.90;;;;;;5038108;28;20100;-56
2021/11/11 09:05:33;;;;;;;47.08;25.05;;;8.70;99.90;;;;;;5042921;28;20036;-56
2021/11/11 09:08:02;;;;;;;47.20;24.45;;;8.90;99.90;;;;;;5041194;28;20024;-56
2021/11/11 09:10:30;;;;;;;45.15;25.27;;;8.50;99.90;;;;;;5042422;28;20021;-56
2021/11/11 09:12:57;;;;;;;49.80;27.27;;;8.50;99.90;;;;;;5043084;28;20052;-56
2021/11/11 09:15:26;;;;;;;42.90;24.65;;;8.80;99.90;;;;;;5066670;28;20032;-57
2021/11/11 09:17:57;;;;;;;38.28;23.58;;;8.90;99.90;;;;;;5072597;28;20052;-56
2021/11/11 09:20:25;;;;;;;39.15;23.50;;;8.70;99.90;;;;;;5069609;28;20049;-56
2021/11/11 09:22:53;;;;;;;41.10;24.17;;;8.70;99.90;;;;;;5069634;28;20081;-57
2021/11/11 09:25:18;;;;;;;43.35;24.45;;;8.80;99.90;;;;;;5072556;28;20031;-56
2021/11/11 09:27:45;;;;;;;54.22;36.45;;;9.00;99.90;;;;;;5021345;28;20041;-56
2021/11/11 09:30:15;;;;;;;40.75;25.17;;;8.90;99.90;;;;;;5074208;28;20036;-56
2021/11/11 09:32:42;;;;;;;43.05;23.90;;;9.10;99.90;;;;;;5076559;28;20613;-56
2021/11/11 09:35:08;;;;;;;41.42;22.58;;;9.30;99.90;;;;;;5075987;28;20476;-56
2021/11/11 09:37:36;;;;;;;39.50;23.40;;;9.30;99.90;;;;;;5074812;28;20036;-56
2021/11/11 09:40:05;;;;;;;43.60;25.48;;;9.30;99.90;;;;;;5049009;28;20051;-57
2021/11/11 09:42:32;;;;;;;41.17;26.98;;;9.40;99.90;;;;;;5000446;28;20029;-56
2021/11/11 09:44:59;;;;;;;45.08;26.48;;;9.50;99.90;;;;;;5000575;28;20076;-57
2021/11/11 09:47:25;;;;;;;34.97;22.00;;;9.50;99.90;;;;;;5053558;28;20550;-57
2021/11/11 09:49:51;;;;;;;37.08;23.50;;;9.40;99.90;;;;;;5053840;28;20029;-57
2021/11/11 09:52:18;;;;;;;42.30;26.35;;;9.30;99.90;;;;;;5003852;28;20404;-56
2021/11/11 10:00:14;;;;;;;41.65;24.95;;;9.30;99.90;;;;;;5052337;28;20427;-56
2021/11/11 10:02:40;;;;;;;42.47;24.17;;;9.40;99.90;;;;;;4986188;28;20095;-57
2021/11/11 10:05:07;;;;;;;44.40;25.35;;;9.30;99.90;;;;;;5053813;28;20120;-55
2021/11/11 10:07:33;;;;;;;37.97;23.45;;;9.50;99.90;;;;;;5006469;28;20091;-56
2021/11/11 10:09:59;;;;;;;40.63;24.58;;;9.30;99.90;;;;;;5053030;28;20029;-56
2021/11/11 10:12:25;;;;;;;38.67;24.58;;;9.10;99.90;;;;;;5051405;28;20519;-56
2021/11/11 10:14:52;;;;;;;47.00;30.10;;;9.40;99.90;;;;;;5052252;28;20017;-55
2021/11/11 10:17:20;;;;;;;41.15;24.38;;;9.30;99.90;;;;;;5052740;28;20445;-56
2021/11/11 10:19:51;;;;;;;35.45;22.67;;;9.30;99.90;;;;;;4997170;28;20079;-55
2021/11/11 10:22:24;;;;;;;32.50;19.60;;;8.80;99.90;;;;;;5006737;28;20125;-55
2021/11/11 10:25:01;;;;;;;35.95;22.55;;;8.60;99.90;;;;;;5007174;28;20383;-62
2021/11/11 10:27:29;;;;;;;35.25;26.25;;;8.70;99.90;;;;;;5003855;28;20027;-62
2021/11/11 10:30:02;;;;;;;37.25;25.17;;;9.10;99.90;;;;;;5004954;28;20049;-63
2021/11/11 10:32:34;;;;;;;36.65;25.90;;;9.00;99.90;;;;;;4992013;28;20394;-61
2021/11/11 10:35:04;;;;;;;33.15;21.92;;;9.10;99.90;;;;;;4989282;28;20049;-56
2021/11/11 10:37:34;;;;;;;43.58;25.17;;;9.60;99.90;;;;;;5010287;28;20437;-59
2021/11/11 10:40:05;;;;;;;31.80;22.02;;;9.90;99.90;;;;;;5003961;28;20065;-62
2021/11/11 10:42:33;;;;;;;36.33;24.42;;;10.20;99.90;;;;;;5008423;28;20026;-59
2021/11/11 10:45:03;;;;;;;31.35;21.77;;;10.30;99.90;;;;;;5009351;28;20129;-55
2021/11/11 10:47:32;;;;;;;39.70;25.88;;;10.00;99.90;;;;;;4995014;28;20120;-65
2021/11/11 10:50:01;;;;;;;34.88;25.90;;;10.20;99.90;;;;;;5018136;28;20044;-62
2021/11/11 10:52:33;;;;;;;33.70;24.55;;;10.30;99.90;;;;;;5052692;28;20048;-59
2021/11/11 10:55:16;;;;;;;41.25;27.77;;;10.30;99.90;;;;;;5053389;28;20039;-61
2021/11/11 10:58:02;;;;;;;32.15;22.80;;;10.50;99.90;;;;;;5001704;28;20392;-61
2021/11/11 11:00:27;;;;;;;34.08;23.75;;;10.70;99.90;;;;;;5018913;28;20443;-64
2021/11/11 11:03:01;;;;;;;31.45;23.95;;;10.80;99.90;;;;;;5052888;28;20060;-58
2021/11/11 11:05:38;;;;;;;35.47;27.05;;;10.80;99.90;;;;;;5052197;28;20041;-59
2021/11/11 11:08:11;;;;;;;34.63;24.40;;;10.80;99.90;;;;;;5046787;28;20037;-58
2021/11/11 11:10:44;;;;;;;35.20;24.70;;;10.70;99.90;;;;;;5042925;28;20108;-59
2021/11/11 11:13:26;;;;;;;36.42;23.23;;;10.60;99.90;;;;;;5051562;28;20021;-59
2021/11/11 11:15:58;;;;;;;30.00;21.83;;;10.60;99.90;;;;;;5043667;28;20040;-64
2021/11/11 11:18:33;;;;;;;32.63;23.17;;;10.70;99.90;;;;;;5048206;28;20484;-57
2021/11/11 11:21:04;;;;;;;31.90;23.13;;;10.80;99.90;;;;;;5030187;28;20086;-57
2021/11/11 11:23:43;;;;;;;32.40;22.90;;;10.90;99.90;;;;;;5027656;28;20021;-62
2021/11/11 11:26:16;;;;;;;33.53;22.10;;;11.10;99.90;;;;;;5027410;28;20033;-48
2021/11/11 11:29:02;;;;;;;29.42;18.63;;;11.00;99.90;;;;;;5033141;28;20436;-53
2021/11/11 11:31:35;;;;;;;29.98;22.42;;;11.00;99.90;;;;;;5032861;28;20052;-55
2021/11/11 11:34:07;;;;;;;36.35;25.15;;;11.00;99.90;;;;;;5026390;28;20050;-56
2021/11/11 11:36:43;;;;;;;29.05;19.88;;;11.20;99.90;;;;;;5025141;28;20527;-57
2021/11/11 11:39:11;;;;;;;31.75;23.05;;;11.30;99.90;;;;;;5020526;28;20091;-56
2021/11/11 11:41:43;;;;;;;28.95;20.95;;;11.40;99.90;;;;;;5032421;28;20056;-53
2021/11/11 11:44:17;;;;;;;33.45;23.58;;;11.40;99.90;;;;;;4997052;28;20041;-58
2021/11/11 11:47:12;;;;;;;31.27;21.15;;;11.50;99.90;;;;;;5031827;28;20440;-56
2021/11/11 11:49:40;;;;;;;29.20;20.17;;;11.60;99.90;;;;;;5032507;28;20037;-56
2021/11/11 11:52:08;;;;;;;30.10;21.52;;;11.80;99.90;;;;;;4979851;28;20063;-57
2021/11/11 11:57:09;;;;;;;30.85;22.73;;;12.00;99.90;;;;;;5033000;28;20095;-58
2021/11/11 11:59:41;;;;;;;31.15;22.75;;;11.70;99.90;;;;;;4982567;28;20045;-56
2021/11/11 12:02:19;;;;;;;32.33;21.90;;;11.80;99.90;;;;;;5032529;28;20038;-56
2021/11/11 12:40:23;;;;;;;27.25;17.83;;;12.30;99.90;;;;;;4950966;29;20054;-55
2021/11/11 12:42:57;;;;;;;31.52;20.17;;;12.20;99.90;;;;;;4949510;29;20039;-55
2021/11/11 12:45:35;;;;;;;31.25;22.05;;;12.10;99.90;;;;;;4948751;29;20083;-55
2021/11/11 12:48:10;;;;;;;31.67;21.45;;;12.20;99.90;;;;;;4951390;29;20136;-53
2021/11/11 12:50:49;;;;;;;31.85;22.25;;;12.10;99.90;;;;;;5027700;28;20044;-54
2021/11/11 12:53:16;;;;;;;31.58;21.00;;;12.10;99.90;;;;;;5026074;28;20022;-55
2021/11/11 12:55:57;;;;;;;34.28;21.95;;;12.20;99.90;;;;;;5023752;28;20041;-55
2021/11/11 12:58:35;;;;;;;34.10;23.27;;;12.30;99.90;;;;;;5021029;28;20615;-51
2021/11/11 13:01:11;;;;;;;43.40;22.92;;;12.50;99.90;;;;;;5030035;28;20709;-56
2021/11/11 13:04:00;;;;;;;33.92;24.13;;;12.80;99.90;;;;;;5023680;28;20030;-55
2021/11/11 13:06:39;;;;;;;34.20;22.23;;;12.90;99.90;;;;;;4972293;28;20051;-55
2021/11/11 13:09:08;;;;;;;28.85;20.67;;;12.90;99.90;;;;;;4940401;28;20429;-54
2021/11/11 13:11:38;;;;;;;40.65;29.88;;;12.90;99.90;;;;;;4974328;28;20057;-54
2021/11/11 13:14:16;;;;;;;34.90;24.02;;;12.80;99.90;;;;;;4972154;28;20050;-52
2021/11/11 13:16:58;;;;;;;34.08;21.50;;;12.80;99.90;;;;;;4971604;28;20109;-56
2021/11/11 13:19:50;;;;;;;30.70;21.80;;;12.70;99.90;;;;;;4974320;28;20049;-51
2021/11/11 13:22:46;;;;;;;32.40;24.75;;;12.80;99.90;;;;;;4959150;28;20045;-54
2021/11/11 15:04:35;;;;;;;41.22;30.05;;;11.40;99.90;;;;;;5036983;28;20052;-57
2021/11/11 16:24:11;;;;;;;48.28;29.33;;;9.60;99.90;;;;;;4971809;28;20119;-57
2021/11/11 16:26:37;;;;;;;46.80;27.67;;;9.60;99.90;;;;;;5032206;28;20180;-56
2021/11/11 16:29:04;;;;;;;55.38;36.25;;;9.60;99.90;;;;;;5032266;28;20549;-59
2021/11/11 16:31:30;;;;;;;63.13;35.22;;;9.60;99.90;;;;;;5032112;28;20037;-57
2021/11/11 16:33:58;;;;;;;51.92;30.15;;;9.40;99.90;;;;;;4997265;28;20041;-59
2021/11/11 16:36:24;;;;;;;78.18;42.10;;;9.40;99.90;;;;;;5032176;28;20608;-59
2021/11/11 16:38:51;;;;;;;61.83;36.70;;;9.30;99.90;;;;;;5033187;28;20033;-57
2021/11/11 16:41:18;;;;;;;55.25;30.45;;;9.10;99.90;;;;;;5001360;28;20044;-59
2021/11/11 16:43:46;;;;;;;50.80;28.58;;;9.30;99.90;;;;;;5036187;28;20108;-58
2021/11/11 16:46:12;;;;;;;52.05;29.92;;;9.20;99.90;;;;;;5017528;28;20068;-57